CheckWX is a tool to help pilots better visualize weather data.  It is not intended as a substitute for an official pre-flight weather briefing.

11:30:22 UTC

DAOY METAR
El Bayadh Airport
El Bayadh, Algeria
Current

30 mins ago

DAOY 041100Z 23006KT CAVOK 13/M05 Q1018
Observed
Apr-4 @ 11:00 UTC
Wind
  • 230° at 6 KTS
Visibility
10,000+ meters
Flight Rules
VFR
Cloud Levels
  • Clear skies
Temperature
13°C / 55°F
Dewpoint
-5°C / 23°F
Humidity
28%
Altimeter
30.06" Hg
Pressure
1017.92 hPa
Previous

2 hours ago

DAOY 041000Z 15006KT 9999 FEW030 12/M02 Q1018
Observed
Apr-4 @ 10:00 UTC
Wind
  • 150° at 6 KTS
Visibility
10,000+ meters
Flight Rules
VFR
Cloud Levels
  • Few at 3,000' AGL
Temperature
12°C / 54°F
Dewpoint
-2°C / 28°F
Humidity
38%
Altimeter
30.06" Hg
Pressure
1017.92 hPa
Previous

3 hours ago

DAOY 040900Z 17004KT CAVOK 10/M02 Q1018
Observed
Apr-4 @ 09:00 UTC
Wind
  • 170° at 4 KTS
Visibility
10,000+ meters
Flight Rules
VFR
Cloud Levels
  • Clear skies
Temperature
10°C / 50°F
Dewpoint
-2°C / 28°F
Humidity
43%
Altimeter
30.06" Hg
Pressure
1017.92 hPa